createdAt,value
2018-02-13T00:00:28.255Z,5.20
2018-02-13T00:01:30.052Z,5.00
2018-02-13T00:02:29.093Z,5.10
2018-02-13T00:03:28.199Z,5.10
2018-02-13T00:04:28.175Z,4.70
2018-02-13T00:05:28.153Z,4.60
2018-02-13T00:06:28.131Z,4.40
2018-02-13T00:07:28.125Z,4.50
2018-02-13T00:08:28.109Z,4.50
2018-02-13T00:09:28.069Z,4.80
2018-02-13T00:10:28.049Z,4.60
2018-02-13T00:11:28.038Z,4.80
2018-02-13T00:12:28.026Z,4.70
2018-02-13T00:13:29.056Z,4.50
2018-02-13T00:14:27.964Z,4.60
2018-02-13T00:15:27.944Z,4.90
2018-02-13T00:16:27.925Z,4.80
2018-02-13T00:17:28.220Z,5.20
2018-02-13T00:18:27.902Z,5.10
2018-02-13T00:19:27.862Z,4.90
2018-02-13T00:20:27.840Z,4.80
2018-02-13T00:21:27.820Z,4.80
2018-02-13T00:22:27.798Z,5.20
2018-02-13T00:23:27.794Z,4.80
2018-02-13T00:24:27.761Z,4.60
2018-02-13T00:25:27.737Z,4.90
2018-02-13T00:26:27.715Z,4.30
2018-02-13T00:27:27.696Z,4.50
2018-02-13T00:28:27.690Z,4.80
2018-02-13T00:29:27.654Z,4.90
2018-02-13T00:30:27.633Z,4.90
2018-02-13T00:31:27.610Z,5.00
2018-02-13T00:32:27.590Z,5.00
2018-02-13T00:33:27.570Z,4.90
2018-02-13T00:34:27.568Z,4.60
2018-02-13T00:35:27.546Z,4.80
2018-02-13T00:36:27.504Z,4.50
2018-02-13T00:37:27.490Z,5.50
2018-02-13T00:38:27.463Z,4.60
2018-02-13T00:39:27.449Z,4.80
2018-02-13T00:40:27.426Z,4.80
2018-02-13T00:41:27.414Z,4.80
2018-02-13T00:42:27.383Z,5.10
2018-02-13T00:43:28.089Z,5.30
2018-02-13T00:44:27.361Z,5.00
2018-02-13T00:45:27.349Z,5.00
2018-02-13T00:46:27.316Z,5.00
2018-02-13T00:47:27.338Z,5.00
2018-02-13T00:48:27.270Z,4.80
2018-02-13T00:49:27.236Z,4.80
2018-02-13T00:50:27.227Z,4.80
2018-02-13T00:51:27.211Z,4.70
2018-02-13T00:52:27.176Z,5.20
2018-02-13T00:53:27.155Z,4.80
2018-02-13T00:54:27.137Z,4.70
2018-02-13T00:55:27.131Z,4.70
2018-02-13T00:56:27.090Z,5.20
2018-02-13T00:57:27.088Z,5.70
2018-02-13T00:58:27.050Z,5.20
2018-02-13T00:59:27.029Z,4.90
2018-02-13T01:00:27.017Z,5.00
2018-02-13T01:01:27.090Z,5.30
2018-02-13T01:02:26.963Z,5.00
2018-02-13T01:03:26.948Z,4.80
2018-02-13T01:04:26.925Z,4.90
2018-02-13T01:05:26.907Z,5.10
2018-02-13T01:06:26.899Z,5.50
2018-02-13T01:07:26.865Z,5.10
2018-02-13T01:08:26.841Z,5.10
2018-02-13T01:09:26.822Z,5.30
2018-02-13T01:10:26.831Z,5.10
2018-02-13T01:11:26.779Z,5.40
2018-02-13T01:12:26.773Z,5.30
2018-02-13T01:13:26.741Z,5.50
2018-02-13T01:14:26.717Z,5.10
2018-02-13T01:15:26.700Z,5.20
2018-02-13T01:16:26.691Z,5.30
2018-02-13T01:17:26.655Z,5.50
2018-02-13T01:18:26.677Z,5.00
2018-02-13T01:19:26.611Z,5.40
2018-02-13T01:20:26.608Z,5.50
2018-02-13T01:21:26.575Z,5.30
2018-02-13T01:22:26.562Z,5.50
2018-02-13T01:23:26.530Z,5.70
2018-02-13T01:24:26.509Z,5.50
2018-02-13T01:25:26.486Z,5.30
2018-02-13T01:26:26.469Z,5.50
2018-02-13T01:27:26.472Z,5.60
2018-02-13T01:28:26.435Z,5.50
2018-02-13T01:29:26.412Z,5.30
2018-02-13T01:30:26.386Z,5.20
2018-02-13T01:31:26.373Z,5.60
2018-02-13T01:32:26.336Z,5.60
2018-02-13T01:33:26.340Z,5.40
2018-02-13T01:34:26.299Z,5.40
2018-02-13T01:35:26.282Z,5.70
2018-02-13T01:36:26.259Z,5.80
2018-02-13T01:37:26.233Z,5.20
2018-02-13T01:38:26.212Z,5.30
2018-02-13T01:39:26.213Z,5.80
2018-02-13T01:40:26.174Z,5.30
2018-02-13T01:41:26.157Z,5.40
2018-02-13T01:42:26.132Z,5.60
2018-02-13T01:43:26.116Z,5.60
2018-02-13T01:44:26.105Z,5.40
2018-02-13T01:45:26.068Z,5.60
2018-02-13T01:46:26.051Z,5.50
2018-02-13T01:47:26.033Z,5.40
2018-02-13T01:48:26.006Z,5.50
2018-02-13T01:49:25.999Z,5.60
2018-02-13T01:50:25.981Z,5.50
2018-02-13T01:51:25.947Z,5.40
2018-02-13T01:52:25.921Z,5.40
2018-02-13T01:53:25.903Z,5.30
2018-02-13T01:54:25.879Z,5.40
2018-02-13T01:55:25.859Z,5.60
2018-02-13T01:56:25.857Z,5.20
2018-02-13T01:57:25.819Z,5.40
2018-02-13T01:58:25.797Z,5.40
2018-02-13T01:59:25.782Z,5.30
2018-02-13T02:00:25.754Z,5.20
2018-02-13T02:01:25.750Z,4.80
2018-02-13T02:02:25.714Z,5.10
2018-02-13T02:03:25.691Z,5.00
2018-02-13T02:04:25.673Z,5.40
2018-02-13T02:05:25.665Z,4.70
2018-02-13T02:06:25.628Z,4.90
2018-02-13T02:07:25.607Z,4.90
2018-02-13T02:08:25.584Z,4.80
2018-02-13T02:09:25.566Z,5.00
2018-02-13T02:10:25.546Z,4.80
2018-02-13T02:11:25.543Z,4.60
2018-02-13T02:12:25.501Z,4.90
2018-02-13T02:13:25.487Z,4.90
2018-02-13T02:14:25.460Z,4.60
2018-02-13T02:15:25.438Z,4.50
2018-02-13T02:16:25.431Z,4.50
2018-02-13T02:17:25.413Z,4.80
2018-02-13T02:18:25.374Z,4.40
2018-02-13T02:19:25.352Z,4.40
2018-02-13T02:20:25.334Z,4.50
2018-02-13T02:21:25.307Z,4.80
2018-02-13T02:22:25.291Z,4.50
2018-02-13T02:23:25.287Z,4.40
2018-02-13T02:24:25.248Z,4.30
2018-02-13T02:25:25.226Z,4.50
2018-02-13T02:26:27.061Z,4.40
2018-02-13T02:27:25.186Z,4.40
2018-02-13T02:28:25.179Z,4.20
2018-02-13T02:29:25.154Z,4.10
2018-02-13T02:30:25.120Z,4.40
2018-02-13T02:31:25.108Z,4.20
2018-02-13T02:32:25.078Z,4.10
2018-02-13T02:33:25.069Z,4.40
2018-02-13T02:34:25.054Z,4.30
2018-02-13T02:35:25.014Z,4.20
2018-02-13T02:36:24.992Z,4.50
2018-02-13T02:37:24.981Z,4.70
2018-02-13T02:38:24.967Z,4.30
2018-02-13T02:39:24.932Z,4.40
2018-02-13T02:40:24.911Z,4.60
2018-02-13T02:41:24.884Z,4.50
2018-02-13T02:42:24.870Z,4.20
2018-02-13T02:43:24.862Z,4.80
2018-02-13T02:44:24.838Z,4.40
2018-02-13T02:45:24.823Z,4.00
2018-02-13T02:46:24.780Z,4.40
2018-02-13T02:47:24.771Z,4.00
2018-02-13T02:48:24.738Z,4.00
2018-02-13T02:49:24.718Z,4.80
2018-02-13T02:50:24.695Z,4.40
2018-02-13T02:51:24.689Z,4.40
2018-02-13T02:52:24.654Z,4.20
2018-02-13T02:53:24.628Z,4.00
2018-02-13T02:54:24.611Z,4.30
2018-02-13T02:55:24.590Z,4.10
2018-02-13T02:56:24.589Z,3.70
2018-02-13T02:57:24.546Z,4.10
2018-02-13T02:58:24.528Z,4.10
2018-02-13T02:59:24.517Z,3.90
2018-02-13T03:00:24.490Z,4.20
2018-02-13T03:01:24.459Z,4.10
2018-02-13T03:02:24.903Z,4.30
2018-02-13T03:03:24.427Z,4.30
2018-02-13T03:04:24.403Z,4.10
2018-02-13T03:05:24.378Z,3.80
2018-02-13T03:06:24.364Z,3.70
2018-02-13T03:07:24.338Z,3.90
2018-02-13T03:08:24.330Z,3.90
2018-02-13T03:09:25.126Z,4.10
2018-02-13T03:10:24.273Z,4.00
2018-02-13T03:11:24.268Z,4.10
2018-02-13T03:12:24.229Z,3.90
2018-02-13T03:13:24.207Z,3.90
2018-02-13T03:14:24.190Z,4.00
2018-02-13T03:15:24.165Z,3.80
2018-02-13T03:16:24.154Z,3.90
2018-02-13T03:17:24.122Z,4.20
2018-02-13T03:18:24.116Z,3.90
2018-02-13T03:19:24.077Z,3.80
2018-02-13T03:20:24.066Z,3.70
2018-02-13T03:21:24.036Z,4.00
2018-02-13T03:22:24.016Z,4.00
2018-02-13T03:23:24.015Z,3.90
2018-02-13T03:24:23.972Z,4.00
2018-02-13T03:25:23.951Z,3.70
2018-02-13T03:26:23.935Z,3.90
2018-02-13T03:27:23.913Z,3.70
2018-02-13T03:28:23.913Z,3.60
2018-02-13T03:29:23.869Z,3.70
2018-02-13T03:30:23.847Z,3.80
2018-02-13T03:31:23.833Z,3.90
2018-02-13T03:32:23.798Z,4.00
2018-02-13T03:33:24.055Z,3.80
2018-02-13T03:34:23.759Z,3.70
2018-02-13T03:35:23.734Z,3.70
2018-02-13T03:36:23.717Z,3.90
2018-02-13T03:37:23.688Z,3.40
2018-02-13T03:38:23.682Z,4.00
2018-02-13T03:39:23.667Z,3.70
2018-02-13T03:40:23.643Z,3.90
2018-02-13T03:41:23.608Z,4.30
2018-02-13T03:42:23.586Z,3.90
2018-02-13T03:43:23.568Z,3.80
2018-02-13T03:44:23.544Z,3.90
2018-02-13T03:45:23.540Z,3.70
2018-02-13T03:46:23.506Z,3.90
2018-02-13T03:47:23.485Z,4.10
2018-02-13T03:48:23.462Z,3.90
2018-02-13T03:49:23.438Z,4.10
2018-02-13T03:50:23.433Z,3.90
2018-02-13T03:51:23.390Z,3.90
2018-02-13T03:52:23.377Z,3.60
2018-02-13T03:53:23.349Z,4.30
2018-02-13T03:54:23.335Z,3.90
2018-02-13T03:55:23.311Z,3.90
2018-02-13T03:56:23.306Z,3.70
2018-02-13T03:57:23.265Z,3.90
2018-02-13T03:58:23.247Z,3.90
2018-02-13T03:59:23.228Z,3.80
2018-02-13T04:00:23.208Z,3.90
2018-02-13T04:01:23.202Z,4.00
2018-02-13T04:02:23.162Z,3.80
2018-02-13T04:03:23.142Z,3.70
2018-02-13T04:04:23.119Z,3.70
2018-02-13T04:05:23.102Z,3.70
2018-02-13T04:06:23.087Z,3.50
2018-02-13T04:07:23.072Z,3.90
2018-02-13T04:08:23.031Z,3.90
2018-02-13T04:09:23.014Z,3.60
2018-02-13T04:10:22.992Z,4.00
2018-02-13T04:11:22.978Z,3.70
2018-02-13T04:12:22.967Z,3.80
2018-02-13T04:13:22.923Z,3.70
2018-02-13T04:14:22.915Z,4.20
2018-02-13T04:15:22.885Z,3.90
2018-02-13T04:16:22.885Z,3.70
2018-02-13T04:17:22.857Z,3.90
2018-02-13T04:18:22.821Z,3.90
2018-02-13T04:19:22.798Z,3.60
2018-02-13T04:20:22.779Z,4.00
2018-02-13T04:21:22.775Z,3.50
2018-02-13T04:22:22.734Z,3.50
2018-02-13T04:23:22.716Z,3.50
2018-02-13T04:24:22.690Z,3.50
2018-02-13T04:25:22.673Z,3.60
2018-02-13T04:26:22.648Z,4.20
2018-02-13T04:27:22.644Z,3.70
2018-02-13T04:28:22.616Z,3.80
2018-02-13T04:29:22.585Z,3.80
2018-02-13T04:30:22.564Z,3.50
2018-02-13T04:31:22.574Z,3.60
2018-02-13T04:32:23.134Z,3.70
2018-02-13T04:33:22.498Z,3.90
2018-02-13T04:34:22.485Z,3.70
2018-02-13T04:35:22.460Z,3.50
2018-02-13T04:36:22.441Z,3.90
2018-02-13T04:37:22.430Z,3.70
2018-02-13T04:38:22.396Z,4.10
2018-02-13T04:39:22.375Z,3.60
2018-02-13T04:40:22.353Z,4.00
2018-02-13T04:41:22.330Z,3.80
2018-02-13T04:42:22.326Z,3.80
2018-02-13T04:43:22.293Z,3.70
2018-02-13T04:44:22.268Z,3.70
2018-02-13T04:45:22.244Z,3.70
2018-02-13T04:46:22.223Z,4.00
2018-02-13T04:47:22.215Z,3.90
2018-02-13T04:48:22.204Z,3.50
2018-02-13T04:49:22.159Z,3.70
2018-02-13T04:50:22.135Z,3.50
2018-02-13T04:51:22.110Z,3.80
2018-02-13T04:52:22.088Z,3.50
2018-02-13T04:53:22.102Z,3.80
2018-02-13T04:54:22.064Z,3.60
2018-02-13T04:55:22.027Z,3.60
2018-02-13T04:56:22.016Z,3.60
2018-02-13T04:57:21.981Z,3.60
2018-02-13T04:58:21.980Z,3.60
2018-02-13T04:59:21.959Z,3.60
2018-02-13T05:00:21.922Z,4.00
2018-02-13T05:01:21.900Z,3.60
2018-02-13T05:02:21.879Z,3.50
2018-02-13T05:03:21.853Z,3.70
2018-02-13T05:04:21.858Z,3.60
2018-02-13T05:05:21.815Z,3.80
2018-02-13T05:06:21.791Z,3.80
2018-02-13T05:07:21.770Z,3.50
2018-02-13T05:08:21.752Z,3.50
2018-02-13T05:09:21.744Z,3.40
2018-02-13T05:10:21.705Z,3.50
2018-02-13T05:11:21.688Z,3.90
2018-02-13T05:12:21.668Z,3.90
2018-02-13T05:13:21.641Z,3.80
2018-02-13T05:14:21.617Z,4.00
2018-02-13T05:15:21.618Z,3.60
2018-02-13T05:16:21.580Z,3.80
2018-02-13T05:17:21.553Z,3.80
2018-02-13T05:18:21.536Z,3.90
2018-02-13T05:19:21.521Z,4.20
2018-02-13T05:20:21.508Z,4.10
2018-02-13T05:21:21.469Z,4.10
2018-02-13T05:22:21.448Z,3.70
2018-02-13T05:23:21.437Z,3.80
2018-02-13T05:24:21.406Z,3.80
2018-02-13T05:25:21.398Z,4.10
2018-02-13T05:26:21.377Z,4.40
2018-02-13T05:27:21.345Z,4.10
2018-02-13T05:28:21.319Z,4.50
2018-02-13T05:29:21.303Z,4.20
2018-02-13T05:30:21.277Z,3.60
2018-02-13T05:31:21.278Z,4.30
2018-02-13T05:32:21.233Z,3.90
2018-02-13T05:33:21.208Z,4.10
2018-02-13T05:34:21.190Z,3.90
2018-02-13T05:35:21.170Z,4.00
2018-02-13T05:36:21.147Z,3.70
2018-02-13T05:37:21.142Z,3.80
2018-02-13T05:38:21.105Z,3.70
2018-02-13T05:39:21.081Z,3.80
2018-02-13T05:40:21.056Z,3.90
2018-02-13T05:41:21.098Z,3.80
2018-02-13T05:42:21.102Z,4.00
2018-02-13T05:43:21.075Z,3.80
2018-02-13T05:44:21.609Z,3.60
2018-02-13T05:45:20.959Z,3.90
2018-02-13T05:46:20.937Z,3.90
2018-02-13T05:47:20.930Z,3.40
2018-02-13T05:48:20.892Z,3.90
2018-02-13T05:49:20.922Z,4.00
2018-02-13T05:50:20.886Z,3.60
2018-02-13T05:51:20.851Z,3.90
2018-02-13T05:52:20.810Z,3.40
2018-02-13T05:53:20.833Z,3.50
2018-02-13T05:54:20.780Z,4.20
2018-02-13T05:55:20.788Z,3.70
2018-02-13T05:56:20.728Z,4.10
2018-02-13T05:57:20.718Z,4.00
2018-02-13T05:58:20.697Z,4.00
2018-02-13T05:59:20.660Z,3.90
2018-02-13T06:00:20.655Z,3.80
2018-02-13T06:01:21.563Z,3.70
2018-02-13T06:02:20.591Z,4.20
2018-02-13T06:03:20.594Z,3.70
2018-02-13T06:04:20.557Z,3.80
2018-02-13T06:05:20.542Z,3.80
2018-02-13T06:06:21.084Z,3.90
2018-02-13T06:07:20.511Z,3.70
2018-02-13T06:08:20.467Z,4.00
2018-02-13T06:09:20.440Z,3.90
2018-02-13T06:10:20.464Z,4.00
2018-02-13T06:11:20.406Z,4.00
2018-02-13T06:12:20.434Z,3.80
2018-02-13T06:13:20.369Z,4.10
2018-02-13T06:14:20.336Z,4.00
2018-02-13T06:15:20.320Z,3.80
2018-02-13T06:16:20.329Z,3.70
2018-02-13T06:17:20.272Z,4.00
2018-02-13T06:18:20.251Z,4.00
2018-02-13T06:19:20.254Z,3.90
2018-02-13T06:20:20.232Z,3.80
2018-02-13T06:21:20.200Z,4.10
2018-02-13T06:22:20.177Z,4.20
2018-02-13T06:23:20.160Z,4.10
2018-02-13T06:24:20.119Z,4.00
2018-02-13T06:25:20.103Z,3.80
2018-02-13T06:26:20.171Z,4.00
2018-02-13T06:27:20.096Z,3.90
2018-02-13T06:28:20.065Z,3.90
2018-02-13T06:29:20.019Z,4.00
2018-02-13T06:30:20.036Z,4.10
2018-02-13T06:31:20.000Z,3.70
2018-02-13T06:32:19.955Z,4.00
2018-02-13T06:33:19.945Z,3.90
2018-02-13T06:34:19.924Z,3.90
2018-02-13T06:35:19.933Z,4.10
2018-02-13T06:36:19.902Z,3.60
2018-02-13T06:37:19.873Z,4.20
2018-02-13T06:38:19.837Z,3.70
2018-02-13T06:39:19.852Z,3.80
2018-02-13T06:40:19.792Z,4.10
2018-02-13T06:41:19.797Z,4.10
2018-02-13T06:42:19.764Z,4.30
2018-02-13T06:43:19.749Z,4.20
2018-02-13T06:44:19.690Z,4.10
2018-02-13T06:45:19.730Z,4.30
2018-02-13T06:46:19.725Z,4.20
2018-02-13T06:47:20.214Z,4.40
2018-02-13T06:48:19.644Z,4.40
2018-02-13T06:49:19.598Z,4.50
2018-02-13T06:50:19.558Z,4.80
2018-02-13T06:51:19.541Z,4.70
2018-02-13T06:52:19.528Z,4.50
2018-02-13T06:53:19.512Z,4.90
2018-02-13T06:54:19.484Z,4.70
2018-02-13T06:55:19.452Z,4.60
2018-02-13T06:56:19.430Z,4.40
2018-02-13T06:57:19.433Z,4.40
2018-02-13T06:58:19.386Z,4.50
2018-02-13T06:59:19.393Z,5.00
2018-02-13T07:00:19.358Z,4.70
2018-02-13T07:01:19.322Z,4.70
2018-02-13T07:02:19.303Z,4.70
2018-02-13T07:03:19.281Z,4.50
2018-02-13T07:04:19.272Z,4.70
2018-02-13T07:05:19.240Z,4.50
2018-02-13T07:06:19.215Z,4.60
2018-02-13T07:07:19.194Z,4.80
2018-02-13T07:08:20.066Z,4.70
2018-02-13T07:09:19.168Z,5.00
2018-02-13T07:10:19.136Z,4.90
2018-02-13T07:11:19.113Z,4.80
2018-02-13T07:12:19.087Z,4.40
2018-02-13T07:13:19.062Z,5.00
2018-02-13T07:14:19.062Z,5.10
2018-02-13T07:15:19.031Z,4.90
2018-02-13T07:16:18.997Z,4.60
2018-02-13T07:17:18.992Z,4.90
2018-02-13T07:18:18.965Z,5.10
2018-02-13T07:19:18.937Z,4.60
2018-02-13T07:20:18.969Z,4.60
2018-02-13T07:21:18.898Z,4.90
2018-02-13T07:22:18.881Z,4.80
2018-02-13T07:23:18.850Z,5.10
2018-02-13T07:24:18.834Z,4.90
2018-02-13T07:25:18.801Z,5.10
2018-02-13T07:26:18.784Z,5.10
2018-02-13T07:27:18.779Z,5.20
2018-02-13T07:28:18.739Z,5.00
2018-02-13T07:29:18.722Z,5.20
2018-02-13T07:30:18.697Z,5.20
2018-02-13T07:31:18.677Z,5.10
2018-02-13T07:32:18.653Z,5.30
2018-02-13T07:33:18.647Z,7.50
2018-02-13T07:34:18.611Z,5.30
2018-02-13T07:35:18.592Z,5.20
2018-02-13T07:36:18.566Z,4.80
2018-02-13T07:37:18.548Z,5.60
2018-02-13T07:38:18.539Z,5.50
2018-02-13T07:39:18.524Z,5.50
2018-02-13T07:40:18.483Z,5.00
2018-02-13T07:41:18.462Z,5.30
2018-02-13T07:42:18.441Z,4.90
2018-02-13T07:43:18.430Z,4.90
2018-02-13T07:44:18.418Z,5.20
2018-02-13T07:45:18.387Z,5.50
2018-02-13T07:46:18.352Z,5.20
2018-02-13T07:47:18.333Z,5.00
2018-02-13T07:48:18.321Z,5.20
2018-02-13T07:49:18.288Z,5.00
2018-02-13T07:50:18.285Z,6.00
2018-02-13T07:51:18.252Z,5.70
2018-02-13T07:52:18.225Z,5.20
2018-02-13T07:53:18.203Z,5.60
2018-02-13T07:54:18.183Z,5.80
2018-02-13T07:55:18.176Z,6.50
2018-02-13T07:56:18.155Z,5.90
2018-02-13T07:57:18.115Z,5.70
2018-02-13T07:58:18.098Z,6.30
2018-02-13T07:59:18.075Z,5.90
2018-02-13T08:00:39.062Z,6.20
2018-02-13T08:01:18.037Z,6.10
2018-02-13T08:02:18.103Z,5.90
2018-02-13T08:03:17.992Z,6.50
2018-02-13T08:04:17.986Z,6.40
2018-02-13T08:05:17.947Z,6.50
2018-02-13T08:06:17.923Z,6.80
2018-02-13T08:07:17.906Z,6.60
2018-02-13T08:08:17.893Z,6.80
2018-02-13T08:09:17.881Z,7.00
2018-02-13T08:10:17.843Z,6.80
2018-02-13T08:11:17.819Z,7.40
2018-02-13T08:12:17.811Z,7.00
2018-02-13T08:13:17.779Z,6.80
2018-02-13T08:14:17.759Z,6.90
2018-02-13T08:15:17.737Z,7.00
2018-02-13T08:16:17.733Z,7.10
2018-02-13T08:17:18.568Z,7.60
2018-02-13T08:18:17.672Z,7.00
2018-02-13T08:19:17.664Z,7.50
2018-02-13T08:20:17.628Z,7.50
2018-02-13T08:21:17.606Z,7.20
2018-02-13T08:22:17.599Z,7.30
2018-02-13T08:23:17.568Z,7.50
2018-02-13T08:24:17.544Z,7.40
2018-02-13T08:25:17.537Z,8.00
2018-02-13T08:26:17.503Z,7.60
2018-02-13T08:27:17.485Z,7.30
2018-02-13T08:28:17.464Z,7.50
2018-02-13T08:29:17.439Z,8.10
2018-02-13T08:30:17.435Z,7.70
2018-02-13T08:31:17.398Z,7.50
2018-02-13T08:32:17.377Z,7.30
2018-02-13T08:33:17.370Z,7.60
2018-02-13T08:34:18.068Z,7.40
2018-02-13T08:35:17.315Z,7.70
2018-02-13T08:36:19.070Z,8.00
2018-02-13T08:37:17.270Z,8.10
2018-02-13T08:38:17.255Z,7.60
2018-02-13T08:39:17.231Z,7.90
2018-02-13T08:40:17.217Z,8.40
2018-02-13T08:41:17.187Z,8.40
2018-02-13T08:42:17.184Z,8.10
2018-02-13T08:43:17.146Z,8.40
2018-02-13T08:44:17.161Z,8.20
2018-02-13T08:45:17.105Z,8.50
2018-02-13T08:46:17.083Z,8.10
2018-02-13T08:47:17.083Z,8.40
2018-02-13T08:48:17.041Z,8.30
2018-02-13T08:49:17.022Z,7.90
2018-02-13T08:50:17.001Z,8.20
2018-02-13T08:51:16.977Z,8.20
2018-02-13T08:52:16.956Z,8.80
2018-02-13T08:53:16.953Z,8.00
2018-02-13T08:54:16.918Z,9.10
2018-02-13T08:55:16.898Z,8.60
2018-02-13T08:56:16.874Z,8.70
2018-02-13T08:57:16.853Z,9.20
2018-02-13T08:58:16.859Z,8.60
2018-02-13T08:59:17.572Z,8.80
2018-02-13T09:00:16.795Z,9.00
2018-02-13T09:01:16.813Z,8.60
2018-02-13T09:02:16.779Z,8.50
2018-02-13T09:03:16.728Z,9.10
2018-02-13T09:04:16.798Z,9.00
2018-02-13T09:05:16.686Z,9.00
2018-02-13T09:06:16.688Z,9.10
2018-02-13T09:07:16.648Z,8.80
2018-02-13T09:08:16.666Z,9.20
2018-02-13T09:09:16.625Z,8.80
2018-02-13T09:10:16.587Z,8.80
2018-02-13T09:11:16.588Z,9.00
2018-02-13T09:12:16.564Z,8.70
2018-02-13T09:13:16.532Z,8.90
2018-02-13T09:14:16.525Z,8.60
2018-02-13T09:15:16.491Z,8.90
2018-02-13T09:16:17.109Z,8.50
2018-02-13T09:17:16.511Z,8.70
2018-02-13T09:18:16.422Z,8.40
2018-02-13T09:19:16.414Z,8.60
2018-02-13T09:20:16.441Z,8.30
2018-02-13T09:21:16.358Z,8.60
2018-02-13T09:22:16.337Z,8.60
2018-02-13T09:23:16.333Z,8.70
2018-02-13T09:24:16.354Z,9.40
2018-02-13T09:25:16.281Z,8.50
2018-02-13T09:26:16.264Z,8.80
2018-02-13T09:27:16.238Z,8.60
2018-02-13T09:28:16.231Z,8.80
2018-02-13T09:29:16.229Z,8.60
2018-02-13T09:30:16.194Z,8.90
2018-02-13T09:31:16.178Z,8.60
2018-02-13T09:32:16.141Z,9.50
2018-02-13T09:33:16.116Z,8.70
2018-02-13T09:34:16.120Z,8.80
2018-02-13T09:35:16.074Z,9.10
2018-02-13T09:36:16.071Z,8.80
2018-02-13T09:37:16.039Z,8.90
2018-02-13T09:38:16.026Z,8.40
2018-02-13T09:39:15.997Z,8.40
2018-02-13T09:40:16.032Z,8.50
2018-02-13T09:41:15.992Z,8.30
2018-02-13T09:42:16.619Z,8.60
2018-02-13T09:43:15.914Z,8.80
2018-02-13T09:44:15.893Z,8.70
2018-02-13T09:45:15.873Z,8.40
2018-02-13T09:46:15.855Z,8.10
2018-02-13T09:47:15.865Z,8.70
2018-02-13T09:48:15.846Z,8.70
2018-02-13T09:49:15.807Z,8.50
2018-02-13T09:50:15.788Z,8.50
2018-02-13T09:51:15.763Z,8.90
2018-02-13T09:52:15.756Z,8.60
2018-02-13T09:53:15.719Z,8.40
2018-02-13T09:54:15.711Z,8.30
2018-02-13T09:55:15.685Z,8.50
2018-02-13T09:56:15.661Z,8.30
2018-02-13T09:57:15.663Z,8.70
2018-02-13T09:58:15.609Z,8.40
2018-02-13T09:59:15.590Z,8.40
2018-02-13T10:00:15.583Z,8.30
2018-02-13T10:01:15.554Z,9.00
2018-02-13T10:02:15.557Z,8.60
2018-02-13T10:03:15.537Z,8.60
2018-02-13T10:04:15.492Z,8.80
2018-02-13T10:05:15.471Z,8.50
2018-02-13T10:06:15.459Z,8.60
2018-02-13T10:07:15.443Z,8.40
2018-02-13T10:08:15.491Z,8.20
2018-02-13T10:09:15.425Z,8.30
2018-02-13T10:10:15.384Z,8.60
2018-02-13T10:11:15.422Z,9.00
2018-02-13T10:12:15.342Z,8.70
2018-02-13T10:13:15.348Z,8.30
2018-02-13T10:14:15.327Z,8.70
2018-02-13T10:15:15.281Z,8.20
2018-02-13T10:16:15.310Z,8.30
2018-02-13T10:17:15.250Z,8.10
2018-02-13T10:18:15.220Z,8.60
2018-02-13T10:19:15.198Z,8.60
2018-02-13T10:20:15.220Z,8.20
2018-02-13T10:21:15.149Z,8.20
2018-02-13T10:22:15.148Z,7.60
2018-02-13T10:23:15.183Z,7.80
2018-02-13T10:24:15.105Z,7.80
2018-02-13T10:25:15.084Z,8.00
2018-02-13T10:26:15.578Z,8.00
2018-02-13T10:27:15.040Z,7.90
2018-02-13T10:28:15.034Z,8.00
2018-02-13T10:29:15.012Z,7.90
2018-02-13T10:30:14.998Z,7.80
2018-02-13T10:31:14.991Z,7.40
2018-02-13T10:32:14.971Z,8.10
2018-02-13T10:33:14.936Z,7.90
2018-02-13T10:34:14.926Z,7.60
2018-02-13T10:35:14.884Z,7.80
2018-02-13T10:36:14.889Z,6.90
2018-02-13T10:37:14.865Z,7.10
2018-02-13T10:38:35.871Z,7.00
2018-02-13T10:39:14.814Z,6.60
2018-02-13T10:40:14.809Z,6.60
2018-02-13T10:41:14.800Z,7.00
2018-02-13T10:42:14.783Z,7.10
2018-02-13T10:43:14.759Z,7.00
2018-02-13T10:44:14.764Z,6.70
2018-02-13T10:45:14.700Z,6.60
2018-02-13T10:46:14.677Z,6.60
2018-02-13T10:47:14.684Z,6.30
2018-02-13T10:48:14.682Z,6.70
2018-02-13T10:49:14.616Z,6.50
2018-02-13T10:50:14.624Z,6.20
2018-02-13T10:51:14.581Z,6.20
2018-02-13T10:52:14.561Z,6.40
2018-02-13T10:53:14.551Z,6.10
2018-02-13T10:54:14.520Z,6.10
2018-02-13T10:55:14.498Z,5.60
2018-02-13T10:56:14.494Z,5.80
2018-02-13T10:57:14.462Z,6.10
2018-02-13T10:58:14.461Z,5.90
2018-02-13T10:59:14.426Z,5.90
2018-02-13T11:00:14.407Z,5.70
2018-02-13T11:01:14.390Z,5.50
2018-02-13T11:02:15.083Z,5.50
2018-02-13T11:03:14.378Z,5.50
2018-02-13T11:04:14.371Z,5.50
2018-02-13T11:05:14.390Z,5.30
2018-02-13T11:06:14.350Z,5.60
2018-02-13T11:07:14.433Z,5.50
2018-02-13T11:08:14.375Z,5.40
2018-02-13T11:09:14.347Z,5.00
2018-02-13T11:10:14.466Z,5.40
2018-02-13T11:11:14.253Z,5.00
2018-02-13T11:12:14.256Z,5.10
2018-02-13T11:13:14.247Z,5.40
2018-02-13T11:14:14.259Z,5.20
2018-02-13T11:15:15.093Z,4.90
2018-02-13T11:16:14.269Z,5.10
2018-02-13T11:17:15.169Z,4.90
2018-02-13T11:18:14.175Z,4.70
2018-02-13T11:19:14.202Z,5.20
2018-02-13T11:20:15.130Z,5.00
2018-02-13T11:21:14.154Z,4.80
2018-02-13T11:22:14.092Z,4.60
2018-02-13T11:23:14.104Z,4.40
2018-02-13T11:24:14.096Z,4.50
2018-02-13T11:25:14.083Z,4.30
2018-02-13T11:26:14.102Z,4.30
2018-02-13T11:27:14.090Z,3.90
2018-02-13T11:28:14.092Z,4.20
2018-02-13T11:29:14.043Z,4.00
2018-02-13T11:30:13.984Z,4.10
2018-02-13T11:31:13.978Z,4.30
2018-02-13T11:32:13.948Z,3.80
2018-02-13T11:33:13.936Z,3.80
2018-02-13T11:34:13.930Z,3.90
2018-02-13T11:35:13.906Z,4.20
2018-02-13T11:36:13.902Z,4.00
2018-02-13T11:37:13.884Z,3.90
2018-02-13T11:38:13.874Z,3.80
2018-02-13T11:39:13.894Z,3.80
2018-02-13T11:40:13.854Z,3.80
2018-02-13T11:41:13.834Z,4.00
2018-02-13T11:42:13.832Z,3.70
2018-02-13T11:43:13.842Z,3.70
2018-02-13T11:44:13.799Z,3.50
2018-02-13T11:45:13.796Z,4.00
2018-02-13T11:46:13.779Z,4.10
2018-02-13T11:47:13.767Z,3.80
2018-02-13T11:48:13.774Z,3.60
2018-02-13T11:49:13.751Z,3.50
2018-02-13T11:50:13.737Z,3.30
2018-02-13T11:51:13.727Z,3.30
2018-02-13T11:52:13.765Z,3.40
2018-02-13T11:53:13.718Z,3.50
2018-02-13T11:54:13.723Z,3.30
2018-02-13T11:55:13.763Z,3.20
2018-02-13T11:56:13.674Z,3.20
2018-02-13T11:57:13.675Z,3.20
2018-02-13T11:58:13.840Z,3.30
2018-02-13T11:59:13.832Z,3.20
2018-02-13T12:00:13.662Z,2.90
2018-02-13T12:01:13.622Z,3.30
2018-02-13T12:02:13.609Z,3.10
2018-02-13T12:03:13.614Z,2.90
2018-02-13T12:04:13.581Z,3.10
2018-02-13T12:05:13.599Z,3.30
2018-02-13T12:06:13.566Z,3.10
2018-02-13T12:07:13.554Z,3.20
2018-02-13T12:08:13.540Z,3.10
2018-02-13T12:09:13.537Z,3.10
2018-02-13T12:10:13.545Z,3.30
2018-02-13T12:11:13.524Z,2.90
2018-02-13T12:12:14.132Z,3.30
2018-02-13T12:13:13.497Z,3.00
2018-02-13T12:14:13.480Z,2.90
2018-02-13T12:15:13.494Z,2.70
2018-02-13T12:16:13.538Z,3.00
2018-02-13T12:17:15.203Z,2.70
2018-02-13T12:18:13.513Z,2.60
2018-02-13T12:19:13.442Z,2.80
2018-02-13T12:20:13.416Z,2.80
2018-02-13T12:21:14.167Z,2.80
2018-02-13T12:22:13.480Z,2.80
2018-02-13T12:23:13.402Z,3.20
2018-02-13T12:24:13.378Z,2.80
2018-02-13T12:25:13.377Z,2.50
2018-02-13T12:26:13.370Z,2.60
2018-02-13T12:27:13.359Z,2.50
2018-02-13T12:28:13.364Z,2.70
2018-02-13T12:29:13.333Z,2.90
2018-02-13T12:30:13.331Z,2.60
2018-02-13T12:31:15.109Z,2.80
2018-02-13T12:32:13.351Z,2.20
2018-02-13T12:33:13.319Z,2.60
2018-02-13T12:34:13.318Z,3.00
2018-02-13T12:35:13.288Z,2.60
2018-02-13T12:36:13.294Z,2.50
2018-02-13T12:37:13.256Z,2.60
2018-02-13T12:38:13.256Z,2.70
2018-02-13T12:39:13.239Z,2.60
2018-02-13T12:40:13.253Z,2.80
2018-02-13T12:41:15.106Z,2.90
2018-02-13T12:42:13.227Z,2.70
2018-02-13T12:43:13.199Z,2.60
2018-02-13T12:44:13.183Z,2.80
2018-02-13T12:45:13.189Z,2.70
2018-02-13T12:46:15.109Z,2.90
2018-02-13T12:47:13.152Z,2.70
2018-02-13T12:48:13.150Z,2.70
2018-02-13T12:49:13.149Z,2.70
2018-02-13T12:50:13.144Z,2.70
2018-02-13T12:51:13.121Z,2.60
2018-02-13T12:52:13.106Z,2.60
2018-02-13T12:53:13.104Z,2.80
2018-02-13T12:54:13.085Z,2.80
2018-02-13T12:55:13.093Z,2.50
2018-02-13T12:56:13.064Z,2.60
2018-02-13T12:57:13.055Z,2.90
2018-02-13T12:58:13.048Z,2.60
2018-02-13T12:59:14.112Z,2.70
2018-02-13T13:00:13.028Z,2.60
2018-02-13T13:01:13.029Z,2.90
2018-02-13T13:02:13.848Z,2.60
2018-02-13T13:03:12.997Z,2.70
2018-02-13T13:04:12.994Z,2.70
2018-02-13T13:05:12.986Z,2.30
2018-02-13T13:06:13.679Z,2.70
2018-02-13T13:07:12.979Z,2.60
2018-02-13T13:08:12.951Z,2.40
2018-02-13T13:09:12.932Z,2.50
2018-02-13T13:10:12.926Z,2.60
2018-02-13T13:11:12.913Z,2.50
2018-02-13T13:12:12.903Z,2.40
2018-02-13T13:13:12.923Z,2.50
2018-02-13T13:14:12.904Z,2.50
2018-02-13T13:15:12.876Z,2.80
2018-02-13T13:16:12.866Z,2.60
2018-02-13T13:17:12.853Z,2.40
2018-02-13T13:18:12.842Z,2.70